Port Jefferson, Ohio
Current Conditions -  °F | °C
As of 3:50 PM on Tuesday 21 Oct 2014 (Local Time) from KEDJ Reporting Station
Overcast Overcast  
Wind Chill: 39°   Ceiling: 1700
Heat Index: 46°   Visibility: 10mi
Dew Point: 45°   Wind: 17mph
Humidity: 93%   Direction: 350°N
Pressure: 30.06"   Gusts: NA
Location:  40.33°N, 84.09°W
Report Text: KEDJ 211950Z AUTO 35015KT 10SM BKN017 OVC023 08/07 A3006 RMK AO1
Loading
Personal Weather Stations






























Interactive Weather Map
Tropical Storm Tracking
New forecast layout! Learn more

10-Day Weather Forecast

Advertisements
Track Severe Weather on mobile